createdAt,value
2023-02-24T00:00:38.611Z,18.83
2023-02-24T00:03:24.378Z,22.67
2023-02-24T00:06:11.873Z,27.85
2023-02-24T00:08:57.145Z,20.10
2023-02-24T00:11:49.177Z,20.83
2023-02-24T00:14:36.954Z,27.85
2023-02-24T00:17:27.816Z,17.35
2023-02-24T00:20:13.857Z,14.45
2023-02-24T00:23:00.650Z,11.52
2023-02-24T00:25:46.082Z,35.45
2023-02-24T00:28:31.571Z,14.90
2023-02-24T00:31:24.662Z,15.50
2023-02-24T00:34:15.477Z,22.25
2023-02-24T00:37:02.191Z,31.58
2023-02-24T00:39:48.089Z,21.67
2023-02-24T00:42:37.519Z,18.50
2023-02-24T00:45:24.151Z,17.52
2023-02-24T00:48:11.003Z,16.45
2023-02-24T00:50:56.555Z,21.55
2023-02-24T00:53:43.400Z,22.27
2023-02-24T00:56:31.978Z,14.55
2023-02-24T00:59:18.899Z,21.30
2023-02-24T01:02:07.203Z,31.70
2023-02-24T01:04:53.182Z,17.10
2023-02-24T01:07:44.897Z,21.27
2023-02-24T01:10:30.634Z,24.67
2023-02-24T01:13:16.129Z,21.27
2023-02-24T01:16:04.467Z,20.27
2023-02-24T01:18:50.088Z,21.40
2023-02-24T01:21:35.794Z,25.17
2023-02-24T01:24:23.868Z,22.40
2023-02-24T01:27:12.074Z,23.25
2023-02-24T01:29:57.656Z,20.20
2023-02-24T01:32:44.662Z,20.88
2023-02-24T01:35:32.935Z,21.33
2023-02-24T01:38:23.195Z,26.95
2023-02-24T01:41:10.591Z,16.58
2023-02-24T01:44:03.371Z,28.40
2023-02-24T01:46:53.131Z,25.75
2023-02-24T01:49:45.983Z,29.33
2023-02-24T01:52:35.208Z,23.65
2023-02-24T01:55:29.183Z,20.30
2023-02-24T01:58:23.001Z,19.27
2023-02-24T02:01:10.268Z,26.60
2023-02-24T02:04:08.539Z,30.98
2023-02-24T02:06:54.715Z,19.17
2023-02-24T02:09:43.341Z,24.98
2023-02-24T02:12:31.141Z,17.90
2023-02-24T02:15:20.608Z,18.23
2023-02-24T02:18:24.252Z,14.45
2023-02-24T02:22:17.213Z,18.73
2023-02-24T02:25:39.080Z,19.23
2023-02-24T02:28:50.881Z,18.13
2023-02-24T02:32:10.802Z,17.08
2023-02-24T02:35:19.065Z,17.02
2023-02-24T02:38:15.392Z,17.17
2023-02-24T02:41:40.594Z,16.10
2023-02-24T02:44:45.020Z,14.10
2023-02-24T02:47:52.152Z,21.40
2023-02-24T02:50:49.961Z,29.65
2023-02-24T02:54:08.009Z,23.73
2023-02-24T02:57:08.720Z,19.50
2023-02-24T03:00:12.384Z,13.95
2023-02-24T03:03:09.401Z,17.13
2023-02-24T03:06:08.004Z,15.52
2023-02-24T03:09:18.222Z,11.25
2023-02-24T03:12:08.632Z,22.67
2023-02-24T03:15:02.061Z,18.40
2023-02-24T03:20:51.945Z,17.13
2023-02-24T03:23:53.014Z,17.85
2023-02-24T03:27:23.059Z,21.73
2023-02-24T03:30:35.004Z,15.07
2023-02-24T03:33:29.871Z,19.52
2023-02-24T03:39:02.161Z,14.85
2023-02-24T03:42:01.398Z,18.05
2023-02-24T03:44:52.639Z,13.82
2023-02-24T03:47:41.239Z,17.83
2023-02-24T03:50:31.912Z,14.77
2023-02-24T03:53:35.060Z,10.25
2023-02-24T03:56:45.943Z,10.73
2023-02-24T04:00:00.480Z,16.73
2023-02-24T04:02:51.076Z,14.32
2023-02-24T04:05:47.634Z,13.13
2023-02-24T04:08:40.776Z,5.35
2023-02-24T04:11:51.122Z,19.13
2023-02-24T04:14:46.312Z,16.10
2023-02-24T04:17:45.768Z,15.93
2023-02-24T04:20:35.752Z,15.35
2023-02-24T04:23:29.424Z,9.52
2023-02-24T04:26:17.062Z,13.00
2023-02-24T04:29:06.478Z,11.73
2023-02-24T04:31:59.749Z,10.27
2023-02-24T04:34:45.561Z,15.27
2023-02-24T04:37:40.291Z,17.27
2023-02-24T04:40:26.569Z,20.15
2023-02-24T04:43:13.163Z,9.32
2023-02-24T04:45:58.659Z,5.53
2023-02-24T04:48:44.273Z,11.93
2023-02-24T04:51:33.945Z,8.98
2023-02-24T04:54:20.784Z,10.98
2023-02-24T04:57:07.406Z,11.65
2023-02-24T04:59:54.140Z,11.65
2023-02-24T05:02:39.610Z,11.00
2023-02-24T05:05:25.786Z,12.05
2023-02-24T05:08:11.648Z,13.85
2023-02-24T05:10:58.616Z,8.73
2023-02-24T05:13:48.019Z,10.50
2023-02-24T05:16:33.720Z,8.38
2023-02-24T05:19:39.148Z,6.03
2023-02-24T05:22:24.428Z,19.10
2023-02-24T05:25:09.930Z,18.13
2023-02-24T05:27:56.692Z,14.13
2023-02-24T05:30:42.602Z,13.82
2023-02-24T05:33:29.254Z,9.77
2023-02-24T05:36:18.270Z,8.68
2023-02-24T05:39:07.840Z,12.13
2023-02-24T05:41:57.388Z,11.40
2023-02-24T05:44:42.788Z,13.95
2023-02-24T05:47:28.371Z,15.15
2023-02-24T05:50:14.089Z,21.45
2023-02-24T05:53:05.846Z,7.05
2023-02-24T05:55:52.704Z,10.85
2023-02-24T05:58:44.965Z,9.30
2023-02-24T06:01:34.643Z,10.20
2023-02-24T06:04:39.710Z,9.07
2023-02-24T06:07:34.696Z,9.95
2023-02-24T06:10:22.634Z,7.85
2023-02-24T06:13:08.187Z,13.13
2023-02-24T06:15:57.228Z,14.30
2023-02-24T06:18:44.267Z,18.65
2023-02-24T06:21:30.185Z,11.93
2023-02-24T06:24:15.745Z,14.63
2023-02-24T06:27:09.877Z,13.80
2023-02-24T06:29:56.606Z,7.30
2023-02-24T06:32:45.073Z,15.80
2023-02-24T06:35:35.528Z,10.20
2023-02-24T06:38:24.001Z,14.43
2023-02-24T06:41:12.426Z,13.07
2023-02-24T06:43:59.009Z,12.32
2023-02-24T06:46:46.410Z,14.95
2023-02-24T06:49:33.326Z,14.77
2023-02-24T06:52:19.744Z,12.63
2023-02-24T06:55:25.439Z,16.95
2023-02-24T06:58:17.339Z,15.55
2023-02-24T07:01:07.218Z,15.95
2023-02-24T07:04:17.497Z,16.80
2023-02-24T07:07:03.711Z,15.40
2023-02-24T07:09:49.414Z,19.50
2023-02-24T07:12:34.872Z,14.60
2023-02-24T07:15:21.469Z,26.27
2023-02-24T07:18:14.738Z,16.55
2023-02-24T07:21:05.131Z,17.77
2023-02-24T07:23:59.326Z,17.63
2023-02-24T07:26:51.702Z,17.02
2023-02-24T07:29:38.261Z,18.63
2023-02-24T07:32:28.076Z,16.55
2023-02-24T07:35:14.513Z,21.00
2023-02-24T07:38:02.216Z,17.17
2023-02-24T07:40:50.024Z,18.45
2023-02-24T07:43:36.848Z,20.67
2023-02-24T07:46:28.519Z,14.57
2023-02-24T07:49:16.199Z,15.35
2023-02-24T07:52:01.942Z,12.40
2023-02-24T07:54:49.837Z,18.42
2023-02-24T07:57:39.456Z,13.23
2023-02-24T08:00:28.266Z,15.55
2023-02-24T08:03:14.061Z,23.48
2023-02-24T08:06:13.114Z,20.70
2023-02-24T08:09:16.725Z,22.88
2023-02-24T08:12:03.709Z,20.13
2023-02-24T08:14:52.372Z,23.08
2023-02-24T08:17:41.051Z,20.30
2023-02-24T08:20:29.744Z,15.27
2023-02-24T08:23:15.145Z,12.90
2023-02-24T08:26:03.867Z,20.95
2023-02-24T08:28:51.645Z,15.00
2023-02-24T08:31:37.260Z,22.98
2023-02-24T08:34:27.696Z,30.88
2023-02-24T08:37:15.691Z,22.48
2023-02-24T08:40:05.524Z,24.05
2023-02-24T08:42:54.906Z,24.92
2023-02-24T08:45:40.093Z,31.05
2023-02-24T08:48:38.186Z,22.92
2023-02-24T08:51:28.568Z,28.95
2023-02-24T08:54:27.001Z,22.95
2023-02-24T08:57:15.337Z,21.25
2023-02-24T09:00:07.082Z,17.38
2023-02-24T09:02:58.581Z,23.10
2023-02-24T09:05:46.461Z,22.23
2023-02-24T09:08:40.165Z,21.23
2023-02-24T09:11:25.581Z,18.88
2023-02-24T09:14:32.196Z,21.88
2023-02-24T09:17:20.941Z,26.35
2023-02-24T09:20:36.011Z,25.50
2023-02-24T09:23:29.784Z,24.08
2023-02-24T09:26:15.045Z,17.50
2023-02-24T09:29:00.872Z,23.35
2023-02-24T09:31:55.403Z,23.02
2023-02-24T09:34:45.235Z,18.70
2023-02-24T09:37:31.833Z,28.27
2023-02-24T09:40:17.192Z,21.40
2023-02-24T09:43:11.017Z,29.58
2023-02-24T09:46:15.035Z,21.90
2023-02-24T09:49:12.772Z,24.40
2023-02-24T09:52:10.380Z,33.35
2023-02-24T09:55:25.110Z,25.92
2023-02-24T09:58:43.290Z,30.52
2023-02-24T10:01:56.508Z,40.13
2023-02-24T10:05:07.392Z,25.67
2023-02-24T10:07:57.094Z,27.00
2023-02-24T10:11:01.050Z,28.40
2023-02-24T10:13:51.450Z,30.55
2023-02-24T10:16:42.264Z,29.52
2023-02-24T10:19:37.025Z,36.92
2023-02-24T10:22:52.659Z,32.80
2023-02-24T10:25:55.306Z,32.05
2023-02-24T10:28:55.718Z,24.75
2023-02-24T10:31:48.044Z,27.95
2023-02-24T10:34:33.718Z,30.25
2023-02-24T10:37:29.396Z,32.30
2023-02-24T10:40:28.618Z,32.53
2023-02-24T10:43:19.176Z,35.22
2023-02-24T10:46:07.586Z,28.50
2023-02-24T10:49:01.106Z,34.95
2023-02-24T10:51:53.183Z,41.50
2023-02-24T10:55:02.920Z,35.53
2023-02-24T10:57:58.940Z,28.55
2023-02-24T11:01:09.080Z,28.33
2023-02-24T11:04:22.687Z,33.28
2023-02-24T11:07:24.189Z,30.13
2023-02-24T11:10:42.745Z,31.30
2023-02-24T11:13:46.797Z,36.72
2023-02-24T11:17:01.886Z,32.15
2023-02-24T11:20:23.843Z,40.95
2023-02-24T11:23:16.086Z,35.42
2023-02-24T11:26:07.199Z,39.33
2023-02-24T11:29:17.774Z,35.08
2023-02-24T11:32:32.410Z,33.63
2023-02-24T11:35:26.789Z,38.42
2023-02-24T11:38:27.274Z,31.90
2023-02-24T11:41:23.307Z,40.30
2023-02-24T11:44:32.000Z,35.65
2023-02-24T11:47:28.476Z,33.45
2023-02-24T11:50:32.729Z,28.63
2023-02-24T11:54:07.488Z,36.92
2023-02-24T11:56:56.318Z,41.72
2023-02-24T12:00:13.237Z,40.95
2023-02-24T12:03:13.793Z,35.60
2023-02-24T12:06:12.668Z,27.67
2023-02-24T12:09:11.900Z,39.08
2023-02-24T12:12:04.896Z,39.08
2023-02-24T12:15:27.472Z,39.47
2023-02-24T12:18:35.446Z,44.53
2023-02-24T12:21:36.320Z,32.95
2023-02-24T12:24:22.306Z,40.38
2023-02-24T12:27:22.964Z,29.77
2023-02-24T12:30:38.275Z,38.58
2023-02-24T12:36:53.721Z,36.65
2023-02-24T12:39:44.897Z,31.85
2023-02-24T12:42:52.405Z,35.63
2023-02-24T12:46:07.112Z,28.25
2023-02-24T12:49:27.273Z,28.40
2023-02-24T12:52:36.307Z,30.98
2023-02-24T12:55:55.926Z,31.70
2023-02-24T12:58:47.884Z,28.52
2023-02-24T13:01:56.615Z,29.90
2023-02-24T13:05:02.745Z,28.10
2023-02-24T13:08:07.488Z,26.90
2023-02-24T13:11:22.858Z,24.08
2023-02-24T13:14:27.387Z,21.98
2023-02-24T13:17:12.551Z,28.65
2023-02-24T13:20:10.078Z,31.58
2023-02-24T13:22:56.278Z,33.38
2023-02-24T13:25:42.060Z,28.52
2023-02-24T13:28:36.544Z,40.17
2023-02-24T13:31:24.443Z,35.80
2023-02-24T13:34:30.726Z,39.70
2023-02-24T13:37:36.672Z,33.03
2023-02-24T13:43:25.407Z,25.88
2023-02-24T13:46:18.646Z,28.77
2023-02-24T13:49:23.704Z,29.50
2023-02-24T13:52:33.085Z,32.53
2023-02-24T13:55:40.766Z,28.88
2023-02-24T13:58:50.469Z,33.92
2023-02-24T14:01:51.105Z,29.55
2023-02-24T14:04:39.373Z,35.60
2023-02-24T14:07:29.525Z,33.97
2023-02-24T14:10:27.600Z,23.23
2023-02-24T14:13:19.882Z,30.38
2023-02-24T14:16:11.871Z,22.08
2023-02-24T14:19:04.153Z,25.38
2023-02-24T14:21:55.081Z,24.80
2023-02-24T14:24:40.542Z,27.45
2023-02-24T14:27:27.226Z,28.48
2023-02-24T14:30:29.077Z,20.05
2023-02-24T14:33:30.198Z,17.90
2023-02-24T14:36:20.300Z,18.13
2023-02-24T14:39:17.383Z,27.95
2023-02-24T14:42:09.701Z,26.42
2023-02-24T14:44:57.415Z,18.30
2023-02-24T14:47:43.413Z,17.55
2023-02-24T14:50:33.538Z,29.10
2023-02-24T14:53:22.589Z,18.33
2023-02-24T14:56:11.488Z,21.58
2023-02-24T14:59:06.951Z,21.45
2023-02-24T15:01:55.765Z,17.42
2023-02-24T15:04:44.357Z,14.32
2023-02-24T15:07:38.568Z,16.48
2023-02-24T15:10:29.848Z,16.58
2023-02-24T15:13:27.040Z,15.95
2023-02-24T15:16:19.096Z,6.80
2023-02-24T15:19:23.035Z,11.13
2023-02-24T15:22:26.963Z,7.07
2023-02-24T15:25:41.970Z,5.28
2023-02-24T15:28:33.927Z,8.70
2023-02-24T15:31:21.679Z,8.10
2023-02-24T15:34:19.928Z,11.95
2023-02-24T15:37:24.321Z,12.43
2023-02-24T15:40:21.784Z,13.20
2023-02-24T15:43:11.942Z,6.60
2023-02-24T15:45:57.322Z,12.80
2023-02-24T15:48:48.165Z,11.32
2023-02-24T15:51:47.516Z,8.38
2023-02-24T15:54:36.434Z,13.63
2023-02-24T15:57:22.716Z,10.43
2023-02-24T16:00:14.515Z,11.73
2023-02-24T16:03:01.194Z,11.52
2023-02-24T16:05:46.732Z,13.35
2023-02-24T16:08:36.151Z,15.18
2023-02-24T16:11:26.389Z,13.90
2023-02-24T16:14:15.174Z,18.35
2023-02-24T16:17:12.571Z,17.08
2023-02-24T16:19:59.011Z,22.77
2023-02-24T16:22:44.958Z,20.10
2023-02-24T16:25:38.053Z,25.30
2023-02-24T16:28:23.794Z,22.10
2023-02-24T16:31:09.550Z,19.33
2023-02-24T16:33:56.249Z,20.30
2023-02-24T16:36:43.890Z,17.92
2023-02-24T16:39:29.732Z,10.68
2023-02-24T16:42:17.348Z,10.95
2023-02-24T16:45:07.069Z,13.73
2023-02-24T16:47:53.090Z,13.63
2023-02-24T16:50:41.123Z,17.35
2023-02-24T16:53:27.172Z,19.45
2023-02-24T16:56:14.969Z,20.52
2023-02-24T16:59:00.117Z,21.95
2023-02-24T17:01:45.780Z,31.98
2023-02-24T17:04:32.302Z,26.90
2023-02-24T17:07:20.876Z,24.55
2023-02-24T17:10:07.205Z,22.70
2023-02-24T17:12:53.002Z,23.13
2023-02-24T17:15:38.799Z,28.38
2023-02-24T17:18:25.352Z,24.70
2023-02-24T17:21:15.115Z,25.30
2023-02-24T17:24:00.916Z,16.75
2023-02-24T17:26:47.265Z,13.32
2023-02-24T17:29:32.829Z,22.00
2023-02-24T17:32:18.704Z,28.58
2023-02-24T17:35:04.790Z,31.25
2023-02-24T17:37:50.247Z,28.23
2023-02-24T17:40:35.554Z,33.65
2023-02-24T17:43:21.231Z,27.65
2023-02-24T17:46:07.369Z,25.83
2023-02-24T17:48:52.946Z,18.65
2023-02-24T17:51:38.631Z,28.63
2023-02-24T17:54:24.137Z,42.35
2023-02-24T17:57:09.817Z,32.88
2023-02-24T17:59:55.590Z,27.20
2023-02-24T18:02:41.397Z,29.10
2023-02-24T18:05:28.518Z,23.17
2023-02-24T18:08:20.698Z,28.80
2023-02-24T18:11:08.116Z,32.42
2023-02-24T18:13:55.108Z,17.15
2023-02-24T18:16:40.808Z,17.48
2023-02-24T18:19:26.414Z,18.48
2023-02-24T18:22:12.090Z,19.92
2023-02-24T18:24:59.174Z,18.20
2023-02-24T18:27:47.124Z,18.95
2023-02-24T18:30:33.474Z,16.17
2023-02-24T18:33:21.530Z,21.52
2023-02-24T18:36:09.501Z,17.25
2023-02-24T18:38:57.643Z,27.10
2023-02-24T18:41:42.900Z,29.48
2023-02-24T18:44:28.274Z,31.08
2023-02-24T18:47:13.836Z,40.70
2023-02-24T18:49:59.285Z,21.63
2023-02-24T18:52:47.622Z,23.52
2023-02-24T18:55:38.000Z,29.67
2023-02-24T18:58:23.738Z,24.77
2023-02-24T19:01:34.726Z,30.55
2023-02-24T19:04:19.909Z,30.30
2023-02-24T19:07:07.349Z,28.92
2023-02-24T19:09:53.430Z,28.95
2023-02-24T19:12:39.374Z,40.75
2023-02-24T19:15:27.574Z,30.77
2023-02-24T19:18:13.197Z,29.98
2023-02-24T19:20:58.417Z,34.30
2023-02-24T19:23:44.358Z,27.50
2023-02-24T19:26:29.994Z,31.48
2023-02-24T19:29:17.341Z,28.25
2023-02-24T19:32:03.103Z,30.58
2023-02-24T19:34:49.094Z,35.50
2023-02-24T19:37:34.806Z,28.23
2023-02-24T19:40:20.565Z,25.50
2023-02-24T19:43:08.860Z,28.38
2023-02-24T19:46:09.032Z,31.40
2023-02-24T19:48:56.417Z,27.13
2023-02-24T19:51:43.733Z,29.23
2023-02-24T19:54:29.245Z,31.63
2023-02-24T19:57:14.757Z,36.65
2023-02-24T20:00:00.333Z,30.45
2023-02-24T20:02:45.915Z,22.40
2023-02-24T20:05:31.517Z,23.45
2023-02-24T20:08:17.117Z,27.52
2023-02-24T20:11:04.782Z,33.58
2023-02-24T20:13:59.378Z,18.50
2023-02-24T20:16:45.383Z,21.48
2023-02-24T20:19:32.940Z,30.52
2023-02-24T20:22:18.470Z,18.08
2023-02-24T20:25:04.593Z,29.95
2023-02-24T20:27:53.353Z,17.90
2023-02-24T20:30:38.740Z,27.65
2023-02-24T20:33:30.131Z,28.98
2023-02-24T20:36:22.256Z,18.65
2023-02-24T20:39:14.162Z,23.98
2023-02-24T20:42:00.310Z,16.73
2023-02-24T20:44:45.601Z,18.70
2023-02-24T20:47:31.239Z,19.33
2023-02-24T20:50:17.154Z,26.90
2023-02-24T20:53:06.005Z,24.70
2023-02-24T20:55:51.596Z,21.17
2023-02-24T20:58:38.029Z,27.42
2023-02-24T21:01:23.397Z,27.85
2023-02-24T21:04:10.089Z,23.90
2023-02-24T21:06:56.686Z,25.50
2023-02-24T21:09:42.096Z,29.38
2023-02-24T21:12:27.537Z,21.42
2023-02-24T21:15:15.065Z,17.90
2023-02-24T21:18:00.357Z,31.50
2023-02-24T21:20:46.390Z,22.67
2023-02-24T21:23:32.699Z,23.27
2023-02-24T21:26:18.901Z,32.17
2023-02-24T21:29:04.297Z,21.63
2023-02-24T21:31:50.230Z,31.30
2023-02-24T21:34:38.249Z,24.92
2023-02-24T21:37:26.249Z,27.42
2023-02-24T21:40:12.439Z,33.58
2023-02-24T21:42:57.909Z,27.42
2023-02-24T21:45:45.447Z,35.35
2023-02-24T21:48:31.415Z,21.85
2023-02-24T21:51:16.842Z,32.83
2023-02-24T21:54:02.501Z,37.08
2023-02-24T21:56:47.943Z,22.77
2023-02-24T21:59:33.253Z,18.20
2023-02-24T22:02:20.438Z,21.70
2023-02-24T22:05:06.232Z,21.15
2023-02-24T22:07:52.162Z,20.20
2023-02-24T22:10:37.433Z,21.77
2023-02-24T22:13:25.005Z,17.30
2023-02-24T22:16:14.908Z,18.35
2023-02-24T22:19:00.851Z,18.17
2023-02-24T22:21:46.327Z,22.17
2023-02-24T22:24:31.711Z,18.67
2023-02-24T22:27:17.947Z,21.45
2023-02-24T22:30:05.581Z,24.75
2023-02-24T22:32:51.247Z,17.38
2023-02-24T22:35:36.908Z,21.80
2023-02-24T22:38:22.488Z,17.02
2023-02-24T22:41:12.107Z,17.80
2023-02-24T22:43:59.703Z,26.75
2023-02-24T22:46:46.234Z,21.10
2023-02-24T22:49:31.891Z,20.63
2023-02-24T22:52:18.309Z,23.40
2023-02-24T22:55:04.081Z,13.63
2023-02-24T22:57:50.785Z,31.00
2023-02-24T23:00:39.768Z,27.08
2023-02-24T23:03:30.864Z,22.67
2023-02-24T23:06:19.239Z,21.95
2023-02-24T23:09:05.333Z,20.60
2023-02-24T23:11:53.734Z,19.83
2023-02-24T23:14:41.529Z,21.02
2023-02-24T23:17:26.815Z,17.55
2023-02-24T23:20:13.038Z,18.38
2023-02-24T23:23:01.286Z,21.13
2023-02-24T23:25:52.506Z,26.75
2023-02-24T23:28:38.416Z,25.58
2023-02-24T23:31:23.985Z,21.08
2023-02-24T23:34:13.108Z,23.77
2023-02-24T23:37:01.610Z,29.25
2023-02-24T23:39:47.082Z,24.38
2023-02-24T23:42:32.848Z,28.45
2023-02-24T23:45:18.413Z,23.75
2023-02-24T23:48:05.083Z,16.88
2023-02-24T23:50:55.207Z,25.40
2023-02-24T23:53:44.133Z,19.77
2023-02-24T23:56:29.977Z,21.58
2023-02-24T23:59:15.671Z,24.50
